Time;durP1;ratioP1;P1;durP2;ratioP2;P2;SDS_P1;SDS_P2;PMS_P1;PMS_P2;Temp;Humidity;BMP_temperature;BMP_pressure;BME280_temperature;BME280_humidity;BME280_pressure;Samples;Min_cycle;Max_cycle;Signal;HPM_P1;HPM_P2
2023/06/13 00:01:40;;;;;;;4.77;2.73;;;;;;;11.11;nan;99240.06;5068060;28;20265;-80
2023/06/13 00:04:08;;;;;;;4.30;3.20;;;;;;;11.10;nan;99243.81;5076588;28;20194;-78
2023/06/13 00:06:37;;;;;;;4.20;3.00;;;;;;;10.99;nan;99235.53;5076930;28;20806;-78
2023/06/13 00:09:04;;;;;;;4.17;2.90;;;;;;;10.97;nan;99231.44;5065157;28;20234;-78
2023/06/13 00:11:31;;;;;;;3.30;2.80;;;;;;;10.93;nan;99233.75;5057222;28;20259;-80
2023/06/13 00:13:58;;;;;;;4.53;3.10;;;;;;;10.90;nan;99228.06;5056885;28;20196;-81
2023/06/13 00:16:25;;;;;;;4.53;2.80;;;;;;;10.88;nan;99230.13;5056998;28;20194;-81
2023/06/13 00:18:53;;;;;;;3.30;2.83;;;;;;;10.83;nan;99227.31;5070393;28;20195;-81
2023/06/13 00:21:20;;;;;;;3.13;2.70;;;;;;;10.80;nan;99235.84;5057487;28;20635;-81
2023/06/13 00:23:47;;;;;;;2.97;2.77;;;;;;;10.74;nan;99234.06;5056265;28;20204;-80
2023/06/13 00:26:14;;;;;;;5.43;3.30;;;;;;;10.72;nan;99230.81;5057320;28;20699;-80
2023/06/13 00:28:46;;;;;;;4.23;3.03;;;;;;;10.74;nan;99236.75;5037616;28;20198;-80
2023/06/13 00:31:16;;;;;;;3.90;3.07;;;;;;;10.63;nan;99226.84;5067998;28;20203;-80
2023/06/13 00:33:43;;;;;;;3.70;2.87;;;;;;;10.58;nan;99236.38;5076440;28;20562;-80
2023/06/13 00:36:15;;;;;;;4.27;2.87;;;;;;;10.51;nan;99226.78;5071355;28;20235;-80
2023/06/13 00:38:43;;;;;;;3.17;2.87;;;;;;;10.47;nan;99225.63;5062221;28;20214;-81
2023/06/13 00:41:10;;;;;;;3.57;3.03;;;;;;;10.45;nan;99220.47;5057009;28;20199;-80
2023/06/13 00:43:36;;;;;;;4.33;3.00;;;;;;;10.44;nan;99220.72;5070363;28;20212;-80
2023/06/13 00:46:03;;;;;;;3.07;2.77;;;;;;;10.41;nan;99226.53;5063473;28;20189;-81
2023/06/13 00:48:32;;;;;;;3.10;2.80;;;;;;;10.40;nan;99223.06;5055267;28;20280;-80
2023/06/13 00:51:01;;;;;;;4.23;3.30;;;;;;;10.39;nan;99218.75;5037224;28;20197;-80
2023/06/13 00:53:29;;;;;;;4.67;3.23;;;;;;;10.48;nan;99216.56;5056262;28;20199;-80
2023/06/13 00:55:57;;;;;;;4.03;3.10;;;;;;;10.48;nan;99209.34;5063985;28;20196;-80
2023/06/13 00:58:26;;;;;;;4.33;3.10;;;;;;;10.25;nan;99208.44;5051944;28;20314;-81
2023/06/13 01:00:53;;;;;;;3.43;2.97;;;;;;;10.11;nan;99213.94;5068515;28;20254;-81
2023/06/13 01:03:20;;;;;;;3.37;2.80;;;;;;;10.08;nan;99216.25;5037674;28;20228;-80
2023/06/13 01:05:47;;;;;;;4.40;3.23;;;;;;;10.03;nan;99213.44;5062200;28;20648;-80
2023/06/13 01:08:22;;;;;;;2.87;2.67;;;;;;;9.99;nan;99213.06;5059503;28;20203;-80
2023/06/13 01:10:59;;;;;;;4.17;3.20;;;;;;;9.94;nan;99212.91;5070239;28;20251;-80
2023/06/13 01:13:29;;;;;;;4.97;3.23;;;;;;;9.92;nan;99204.31;5055660;28;20220;-80
2023/06/13 01:16:16;;;;;;;3.17;2.60;;;;;;;9.91;nan;99208.03;5069271;28;20211;-81
2023/06/13 01:18:43;;;;;;;3.47;3.17;;;;;;;9.98;nan;99206.09;5043394;28;20193;-80
2023/06/13 01:21:11;;;;;;;4.27;2.93;;;;;;;9.98;nan;99202.59;5056558;28;20611;-80
2023/06/13 01:23:39;;;;;;;5.90;2.90;;;;;;;9.96;nan;99205.50;5057488;28;20267;-81
2023/06/13 01:26:36;;;;;;;5.47;3.07;;;;;;;9.95;nan;99201.19;5049158;28;20201;-80
2023/06/13 01:29:04;;;;;;;3.93;2.90;;;;;;;9.88;nan;99197.78;5054058;28;20201;-82
2023/06/13 01:31:31;;;;;;;3.77;3.00;;;;;;;9.85;nan;99203.56;5053872;28;20630;-80
2023/06/13 01:33:59;;;;;;;3.87;3.00;;;;;;;9.74;nan;99201.66;5069025;28;20190;-81
2023/06/13 01:36:26;;;;;;;3.27;3.03;;;;;;;9.62;nan;99195.41;5050867;28;20271;-81
2023/06/13 01:38:53;;;;;;;4.13;3.00;;;;;;;9.63;nan;99200.56;5064986;28;20564;-81
2023/06/13 01:41:20;;;;;;;3.30;2.67;;;;;;;9.55;nan;99195.50;5077168;28;20266;-81
2023/06/13 01:43:47;;;;;;;4.03;3.40;;;;;;;9.54;nan;99196.53;5076123;28;20189;-81
2023/06/13 01:46:28;;;;;;;4.07;3.13;;;;;;;9.50;nan;99197.22;5061728;28;20189;-79
2023/06/13 01:49:18;;;;;;;6.00;3.30;;;;;;;9.48;nan;99186.72;5061102;28;20189;-79
2023/06/13 01:52:03;;;;;;;3.77;3.40;;;;;;;9.45;nan;99195.22;5061894;28;20808;-80
2023/06/13 01:54:36;;;;;;;3.63;3.27;;;;;;;9.44;nan;99195.44;5075360;28;20177;-80
2023/06/13 01:57:06;;;;;;;3.50;3.20;;;;;;;9.37;nan;99203.53;5074934;28;20174;-81
2023/06/13 01:59:33;;;;;;;5.60;3.37;;;;;;;9.46;nan;99194.19;5073772;28;20291;-79
2023/06/13 02:02:00;;;;;;;4.00;3.03;;;;;;;9.48;nan;99188.59;5072793;28;20704;-80
2023/06/13 02:04:28;;;;;;;5.43;3.10;;;;;;;9.45;nan;99186.38;5074293;28;20203;-80
2023/06/13 02:06:55;;;;;;;3.57;2.90;;;;;;;9.38;nan;99191.00;5056488;28;20254;-80
2023/06/13 02:09:24;;;;;;;3.40;3.10;;;;;;;9.25;nan;99191.91;5073340;28;20233;-81
2023/06/13 02:11:53;;;;;;;3.30;3.00;;;;;;;9.26;nan;99188.22;5073924;28;20188;-80
2023/06/13 02:14:20;;;;;;;3.40;3.10;;;;;;;9.22;nan;99189.69;5074511;28;20173;-80
2023/06/13 02:16:48;;;;;;;3.10;2.80;;;;;;;9.21;nan;99188.06;5072753;28;20196;-80
2023/06/13 02:19:15;;;;;;;4.30;3.30;;;;;;;9.14;nan;99182.81;5073781;28;20200;-80
2023/06/13 02:21:45;;;;;;;4.97;3.13;;;;;;;9.10;nan;99194.94;5074087;28;20674;-79
2023/06/13 02:24:14;;;;;;;5.57;3.10;;;;;;;9.05;nan;99184.09;5074602;28;20188;-80
2023/06/13 02:26:41;;;;;;;4.03;3.10;;;;;;;9.08;nan;99180.19;5073862;28;20173;-81
2023/06/13 02:29:08;;;;;;;3.37;3.07;;;;;;;9.04;nan;99179.00;5073740;28;20181;-80
2023/06/13 02:31:38;;;;;;;3.93;2.63;;;;;;;8.93;nan;99177.84;5073819;28;20181;-80
2023/06/13 02:34:05;;;;;;;4.07;3.10;;;;;;;8.97;nan;99179.03;5074123;28;20181;-80
2023/06/13 02:36:32;;;;;;;5.33;3.30;;;;;;;8.97;nan;99184.38;5072399;28;20697;-80
2023/06/13 02:39:04;;;;;;;3.90;3.17;;;;;;;8.94;nan;99184.84;5073763;28;20181;-80
2023/06/13 02:41:31;;;;;;;3.37;3.07;;;;;;;8.89;nan;99186.53;5073629;28;20204;-80
2023/06/13 02:43:58;;;;;;;4.30;3.33;;;;;;;8.86;nan;99190.47;5073498;28;20177;-80
2023/06/13 02:46:25;;;;;;;3.83;3.07;;;;;;;8.89;nan;99194.53;5072093;28;20185;-80
2023/06/13 02:48:51;;;;;;;3.80;3.10;;;;;;;8.82;nan;99192.72;5072399;28;20220;-80
2023/06/13 02:51:19;;;;;;;3.43;3.13;;;;;;;8.86;nan;99189.66;5072117;28;20200;-80
2023/06/13 02:53:45;;;;;;;3.80;3.40;;;;;;;8.81;nan;99192.97;5059288;28;20283;-80
2023/06/13 02:56:12;;;;;;;3.40;3.10;;;;;;;8.78;nan;99185.38;5072317;28;20211;-80
2023/06/13 02:58:39;;;;;;;4.13;3.40;;;;;;;8.74;nan;99179.66;5069106;28;20750;-80
2023/06/13 03:01:06;;;;;;;3.73;3.10;;;;;;;8.75;nan;99185.81;5066392;28;20212;-80
2023/06/13 03:03:34;;;;;;;3.20;2.90;;;;;;;8.76;nan;99180.28;5065804;28;20193;-80
2023/06/13 03:06:01;;;;;;;4.83;3.10;;;;;;;8.74;nan;99179.66;5070613;28;20266;-80
2023/06/13 03:08:34;;;;;;;3.83;3.10;;;;;;;8.79;nan;99177.16;5064268;28;20197;-81
2023/06/13 03:11:02;;;;;;;3.33;3.03;;;;;;;8.80;nan;99175.31;5074448;28;20211;-80
2023/06/13 03:13:29;;;;;;;4.63;2.97;;;;;;;8.83;nan;99175.69;5050676;28;20216;-81
2023/06/13 03:15:57;;;;;;;3.33;3.03;;;;;;;8.83;nan;99175.69;5073947;28;20295;-79
2023/06/13 03:18:27;;;;;;;3.20;2.90;;;;;;;8.86;nan;99169.09;5063980;28;20207;-80
2023/06/13 03:20:55;;;;;;;3.40;3.10;;;;;;;8.89;nan;99170.50;5068347;28;20200;-80
2023/06/13 03:23:22;;;;;;;3.63;3.30;;;;;;;8.92;nan;99178.88;5065149;28;20197;-80
2023/06/13 03:25:50;;;;;;;5.37;3.10;;;;;;;8.89;nan;99174.00;5067181;28;20205;-79
2023/06/13 03:28:17;;;;;;;3.63;3.33;;;;;;;8.92;nan;99173.53;5071146;28;20200;-79
2023/06/13 03:30:45;;;;;;;3.70;3.33;;;;;;;9.02;nan;99181.06;5069576;28;20200;-79
2023/06/13 03:33:12;;;;;;;3.40;3.10;;;;;;;9.04;nan;99177.13;5066432;28;20206;-79
2023/06/13 03:35:42;;;;;;;3.97;3.40;;;;;;;9.13;nan;99175.00;5066308;28;20287;-79
2023/06/13 03:38:09;;;;;;;4.87;3.33;;;;;;;9.14;nan;99180.13;5074634;28;20603;-80
2023/06/13 03:40:36;;;;;;;4.27;3.50;;;;;;;9.14;nan;99179.31;5066893;28;20347;-80
2023/06/13 03:43:03;;;;;;;4.03;3.20;;;;;;;9.21;nan;99175.50;5063666;28;20224;-80
2023/06/13 03:45:31;;;;;;;7.10;4.50;;;;;;;9.27;nan;99179.16;5060719;28;20186;-80
2023/06/13 03:47:58;;;;;;;4.90;3.53;;;;;;;9.36;nan;99183.19;5074490;28;20338;-81
2023/06/13 03:50:25;;;;;;;5.07;3.33;;;;;;;9.39;nan;99184.56;5075333;28;20209;-80
2023/06/13 03:52:52;;;;;;;5.90;3.23;;;;;;;9.38;nan;99182.97;5060632;28;20245;-81
2023/06/13 03:55:19;;;;;;;3.97;3.40;;;;;;;9.44;nan;99188.22;5045153;28;20213;-80
2023/06/13 03:57:46;;;;;;;3.20;2.90;;;;;;;9.56;nan;99188.31;5057951;28;20204;-80
2023/06/13 04:00:13;;;;;;;4.17;3.67;;;;;;;9.66;nan;99194.75;5063626;28;20193;-79
2023/06/13 04:02:40;;;;;;;4.13;3.53;;;;;;;9.73;nan;99192.81;5059690;28;20254;-78
2023/06/13 04:05:12;;;;;;;9.23;3.37;;;;;;;10.10;nan;99184.72;5062153;28;20287;-80
2023/06/13 04:07:40;;;;;;;3.80;3.50;;;;;;;11.67;nan;99193.84;5070967;28;20200;-80
2023/06/13 04:10:07;;;;;;;4.60;3.37;;;;;;;13.59;nan;99194.47;5058811;28;20585;-80
2023/06/13 04:12:35;;;;;;;3.10;2.77;;;;;;;15.29;nan;99190.22;5068575;28;20185;-80
2023/06/13 04:15:03;;;;;;;3.20;2.90;;;;;;;16.56;nan;99188.81;5060072;28;20197;-80
2023/06/13 04:17:32;;;;;;;3.77;3.00;;;;;;;17.89;nan;99186.47;5042718;28;20709;-81
2023/06/13 04:19:59;;;;;;;5.27;2.70;;;;;;;19.11;nan;99193.81;5064088;28;20204;-80
2023/06/13 04:22:27;;;;;;;4.87;2.50;;;;;;;19.92;nan;99193.00;5066367;28;20212;-78
2023/06/13 04:24:53;;;;;;;4.00;2.50;;;;;;;20.57;nan;99197.56;5065068;28;20197;-78
2023/06/13 04:27:28;;;;;;;4.23;2.40;;;;;;;20.97;nan;99195.28;5054388;28;20233;-78
2023/06/13 04:29:59;;;;;;;3.83;2.40;;;;;;;21.28;nan;99192.84;5061568;28;20205;-78
2023/06/13 04:32:28;;;;;;;4.97;2.60;;;;;;;20.75;nan;99193.19;5055867;28;20200;-78
2023/06/13 04:34:58;;;;;;;3.10;2.50;;;;;;;20.62;nan;99193.94;5060202;28;20197;-78
2023/06/13 04:37:30;;;;;;;3.27;2.53;;;;;;;20.93;nan;99192.34;5067532;28;20652;-78
2023/06/13 04:39:57;;;;;;;2.70;2.50;;;;;;;20.43;nan;99190.41;5054774;28;20300;-78
2023/06/13 04:42:27;;;;;;;3.20;2.50;;;;;;;19.57;nan;99191.47;5063861;28;20737;-78
2023/06/13 04:45:01;;;;;;;4.50;2.57;;;;;;;18.71;nan;99187.63;5059475;28;20189;-79
2023/06/13 04:47:32;;;;;;;3.20;2.90;;;;;;;18.00;nan;99187.25;5058830;28;20193;-80
2023/06/13 04:50:19;;;;;;;4.93;3.10;;;;;;;17.23;nan;99183.13;5053796;28;20255;-78
2023/06/13 04:52:53;;;;;;;4.03;2.53;;;;;;;16.77;nan;99186.97;5057643;28;20236;-79
2023/06/13 04:55:22;;;;;;;4.03;2.77;;;;;;;16.09;nan;99191.69;5060436;28;20197;-79
2023/06/13 04:57:50;;;;;;;4.63;2.70;;;;;;;15.76;nan;99187.53;5059110;28;20197;-79
2023/06/13 05:00:18;;;;;;;3.17;2.80;;;;;;;15.65;nan;99200.16;5064764;28;20197;-79
2023/06/13 05:02:45;;;;;;;3.70;3.00;;;;;;;15.67;nan;99191.81;5059559;28;20205;-79
2023/06/13 05:05:16;;;;;;;4.57;3.00;;;;;;;15.76;nan;99195.63;5066488;28;20186;-80
2023/06/13 05:07:43;;;;;;;3.63;2.70;;;;;;;15.76;nan;99201.84;5057444;28;20193;-79
2023/06/13 05:10:10;;;;;;;4.00;2.70;;;;;;;15.87;nan;99194.56;5054419;28;20222;-82
2023/06/13 05:12:39;;;;;;;3.87;2.60;;;;;;;15.91;nan;99198.38;5058776;28;20271;-79
2023/06/13 05:15:07;;;;;;;4.43;2.77;;;;;;;16.05;nan;99198.72;5066831;28;20196;-79
2023/06/13 05:17:34;;;;;;;5.30;2.60;;;;;;;16.03;nan;99198.16;5067374;28;20182;-79
2023/06/13 05:20:01;;;;;;;3.77;3.47;;;;;;;16.22;nan;99196.59;5063341;28;20189;-80
2023/06/13 05:22:28;;;;;;;5.97;3.10;;;;;;;16.21;nan;99193.06;5065325;28;20757;-78
2023/06/13 05:24:59;;;;;;;7.03;3.17;;;;;;;16.19;nan;99187.09;5065826;28;20658;-79
2023/06/13 05:27:27;;;;;;;3.57;3.27;;;;;;;15.97;nan;99199.22;5054526;28;20204;-79
2023/06/13 05:29:54;;;;;;;4.60;2.90;;;;;;;15.93;nan;99192.72;5057161;28;20664;-78
2023/06/13 05:32:20;;;;;;;4.40;3.40;;;;;;;16.14;nan;99189.81;5054341;28;20553;-80
2023/06/13 05:34:47;;;;;;;3.13;2.83;;;;;;;15.82;nan;99189.97;5054403;28;20189;-80
2023/06/13 05:37:14;;;;;;;7.00;3.10;;;;;;;15.79;nan;99195.09;5061632;28;20666;-79
2023/06/13 05:39:41;;;;;;;5.23;2.90;;;;;;;15.97;nan;99194.63;5060308;28;20211;-79
2023/06/13 05:42:08;;;;;;;3.50;2.87;;;;;;;16.27;nan;99202.00;5054273;28;20212;-79
2023/06/13 05:44:35;;;;;;;5.07;2.83;;;;;;;16.07;nan;99205.47;5066320;28;20254;-79
2023/06/13 05:47:03;;;;;;;5.13;3.10;;;;;;;15.94;nan;99202.44;5056453;28;20661;-79
2023/06/13 05:49:29;;;;;;;3.80;3.40;;;;;;;16.30;nan;99206.88;5065950;28;20185;-79
2023/06/13 05:51:57;;;;;;;2.90;2.70;;;;;;;16.32;nan;99206.63;5054530;28;20196;-79
2023/06/13 05:54:24;;;;;;;3.00;2.70;;;;;;;16.14;nan;99207.94;5055031;28;20174;-79
2023/06/13 05:56:50;;;;;;;2.90;2.60;;;;;;;16.18;nan;99206.31;5054531;28;20182;-79
2023/06/13 05:59:17;;;;;;;4.20;2.57;;;;;;;16.60;nan;99211.56;5054478;28;20246;-79
2023/06/13 06:01:45;;;;;;;4.40;2.70;;;;;;;16.72;nan;99204.00;5054382;28;20203;-79
2023/06/13 06:04:12;;;;;;;3.10;2.80;;;;;;;16.92;nan;99205.91;5054674;28;20186;-80
2023/06/13 06:06:39;;;;;;;4.30;2.53;;;;;;;16.94;nan;99209.13;5054733;28;20178;-79
2023/06/13 06:09:06;;;;;;;3.20;2.43;;;;;;;17.04;nan;99212.66;5054162;28;20222;-79
2023/06/13 06:11:33;;;;;;;3.07;2.60;;;;;;;17.22;nan;99213.19;5054375;28;20200;-79
2023/06/13 06:14:01;;;;;;;2.50;2.30;;;;;;;17.55;nan;99212.56;5053521;28;20189;-79
2023/06/13 06:16:29;;;;;;;2.70;2.17;;;;;;;17.93;nan;99220.06;5052356;28;20256;-80
2023/06/13 06:18:56;;;;;;;3.67;2.67;;;;;;;18.18;nan;99212.91;5053439;28;20196;-79
2023/06/13 06:21:23;;;;;;;3.27;2.57;;;;;;;18.41;nan;99218.47;5053209;28;20212;-79
2023/06/13 06:23:50;;;;;;;3.67;2.67;;;;;;;18.17;nan;99211.28;5053413;28;20281;-78
2023/06/13 06:26:16;;;;;;;4.50;2.80;;;;;;;18.43;nan;99207.31;5053349;28;20207;-78
2023/06/13 06:28:43;;;;;;;4.07;2.70;;;;;;;18.59;nan;99210.78;5052299;28;20182;-79
2023/06/13 06:31:10;;;;;;;5.57;2.60;;;;;;;18.56;nan;99217.59;5053001;28;20185;-78
2023/06/13 06:33:37;;;;;;;4.80;3.00;;;;;;;18.57;nan;99226.56;5053234;28;20606;-79
2023/06/13 06:36:04;;;;;;;6.33;3.07;;;;;;;18.45;nan;99218.72;5053182;28;20186;-78
2023/06/13 06:38:30;;;;;;;4.80;2.70;;;;;;;18.42;nan;99220.09;5052931;28;20185;-78
2023/06/13 06:40:57;;;;;;;4.27;3.00;;;;;;;18.76;nan;99222.06;5052806;28;20617;-79
2023/06/13 06:43:24;;;;;;;4.67;3.50;;;;;;;18.75;nan;99218.56;5052925;28;20565;-78
2023/06/13 06:45:52;;;;;;;6.07;3.20;;;;;;;18.26;nan;99215.84;5051722;28;20206;-77
2023/06/13 06:48:19;;;;;;;3.47;3.17;;;;;;;18.44;nan;99217.09;5052743;28;20180;-77
2023/06/13 06:50:46;;;;;;;4.20;3.20;;;;;;;18.28;nan;99210.97;5052733;28;20183;-78
2023/06/13 06:53:13;;;;;;;3.50;2.90;;;;;;;18.33;nan;99220.97;5059289;28;20215;-79
2023/06/13 06:55:39;;;;;;;4.07;2.80;;;;;;;17.92;nan;99217.63;5065444;28;20188;-77
2023/06/13 06:58:06;;;;;;;5.97;3.13;;;;;;;18.18;nan;99210.19;5062083;28;20190;-78
2023/06/13 07:00:33;;;;;;;3.03;2.77;;;;;;;17.97;nan;99209.47;5054645;28;20219;-79
2023/06/13 07:03:00;;;;;;;4.63;3.20;;;;;;;18.20;nan;99208.00;5062546;28;20217;-78
2023/06/13 07:05:26;;;;;;;3.57;3.17;;;;;;;18.08;nan;99202.13;5062488;28;20197;-78
2023/06/13 07:07:53;;;;;;;6.17;3.17;;;;;;;17.89;nan;99201.94;5059845;28;20203;-78
2023/06/13 07:10:20;;;;;;;4.67;3.30;;;;;;;18.04;nan;99194.56;5057397;28;20230;-78
2023/06/13 07:12:47;;;;;;;4.83;2.87;;;;;;;18.53;nan;99192.88;5055042;28;20194;-78
2023/06/13 07:15:14;;;;;;;3.73;2.90;;;;;;;18.92;nan;99204.56;5058742;28;20263;-79
2023/06/13 07:17:41;;;;;;;3.13;2.80;;;;;;;18.64;nan;99199.91;5059917;28;20192;-79
2023/06/13 07:20:08;;;;;;;4.30;2.50;;;;;;;19.00;nan;99197.72;5059600;28;20190;-78
2023/06/13 07:22:35;;;;;;;4.90;3.30;;;;;;;19.04;nan;99205.00;5062781;28;20205;-78
2023/06/13 07:25:03;;;;;;;6.07;3.47;;;;;;;18.74;nan;99197.94;5062872;28;20540;-79
2023/06/13 07:27:30;;;;;;;3.33;3.03;;;;;;;19.18;nan;99197.00;5061363;28;20191;-80
2023/06/13 07:29:57;;;;;;;12.40;3.47;;;;;;;18.37;nan;99194.91;5054699;28;20191;-79
2023/06/13 07:32:24;;;;;;;5.33;3.13;;;;;;;18.35;nan;99195.19;5055641;28;20201;-78
2023/06/13 07:34:50;;;;;;;4.50;3.37;;;;;;;18.89;nan;99191.59;5063027;28;20197;-80
2023/06/13 07:37:31;;;;;;;7.07;3.40;;;;;;;18.95;nan;99186.91;5055651;28;20199;-79
2023/06/13 07:39:57;;;;;;;6.27;4.13;;;;;;;18.43;nan;99191.88;5054528;28;20606;-80
2023/06/13 07:42:24;;;;;;;6.83;3.37;;;;;;;18.49;nan;99187.22;5062483;28;20210;-79
2023/06/13 07:44:51;;;;;;;4.70;3.30;;;;;;;18.51;nan;99185.06;5056994;28;20724;-79
2023/06/13 07:47:18;;;;;;;3.27;2.90;;;;;;;19.00;nan;99186.84;5060795;28;20196;-79
2023/06/13 07:49:44;;;;;;;3.20;2.83;;;;;;;19.12;nan;99185.41;5065792;28;20194;-79
2023/06/13 07:52:11;;;;;;;3.27;2.80;;;;;;;19.22;nan;99185.28;5060978;28;20211;-78
2023/06/13 07:54:38;;;;;;;6.73;2.90;;;;;;;19.14;nan;99175.06;5062563;28;20195;-79
2023/06/13 07:57:06;;;;;;;2.73;2.53;;;;;;;19.40;nan;99180.25;5062365;28;20190;-79
2023/06/13 07:59:53;;;;;;;2.93;2.40;;;;;;;19.72;nan;99178.53;5060243;28;20197;-79
2023/06/13 08:02:20;;;;;;;2.40;2.20;;;;;;;19.95;nan;99181.53;5059943;28;20195;-80
2023/06/13 08:04:47;;;;;;;2.37;2.00;;;;;;;19.99;nan;99182.56;5065573;28;20559;-80
2023/06/13 08:07:20;;;;;;;3.50;2.30;;;;;;;19.86;nan;99178.66;5066916;28;20201;-79
2023/06/13 08:09:47;;;;;;;2.77;2.23;;;;;;;19.71;nan;99184.25;5052762;28;20591;-78
2023/06/13 08:12:14;;;;;;;2.73;2.50;;;;;;;19.78;nan;99185.50;5059327;28;20187;-79
2023/06/13 08:14:41;;;;;;;3.70;2.57;;;;;;;19.84;nan;99178.13;5064253;28;20656;-79
2023/06/13 08:17:08;;;;;;;3.27;2.60;;;;;;;19.62;nan;99175.94;5054266;28;20181;-80
2023/06/13 08:19:34;;;;;;;3.17;2.47;;;;;;;19.47;nan;99181.53;5063127;28;20185;-79
2023/06/13 08:22:01;;;;;;;4.13;2.87;;;;;;;19.52;nan;99176.03;5057053;28;20200;-79
2023/06/13 08:24:28;;;;;;;4.27;3.10;;;;;;;19.44;nan;99179.41;5064309;28;20205;-78
2023/06/13 08:26:57;;;;;;;3.03;2.63;;;;;;;19.65;nan;99178.06;5053427;28;20203;-79
2023/06/13 08:29:28;;;;;;;2.73;2.50;;;;;;;19.53;nan;99176.88;5056411;28;20207;-78
2023/06/13 08:31:55;;;;;;;3.40;2.20;;;;;;;19.77;nan;99177.66;5053510;28;20192;-79
2023/06/13 08:34:23;;;;;;;2.60;2.37;;;;;;;20.12;nan;99170.94;5058795;28;20188;-79
2023/06/13 08:36:50;;;;;;;4.43;2.47;;;;;;;20.60;nan;99175.19;5062903;28;20203;-79
2023/06/13 08:39:17;;;;;;;3.07;2.10;;;;;;;20.76;nan;99167.59;5055016;28;20184;-79
2023/06/13 08:41:44;;;;;;;3.13;2.03;;;;;;;20.89;nan;99172.25;5050853;28;20274;-79
2023/06/13 08:44:11;;;;;;;4.27;2.23;;;;;;;20.46;nan;99165.31;5050335;28;20220;-79
2023/06/13 08:46:38;;;;;;;3.20;2.50;;;;;;;20.55;nan;99163.56;5047603;28;20194;-79
2023/06/13 08:49:06;;;;;;;4.03;2.30;;;;;;;20.72;nan;99163.81;5048213;28;20196;-80
2023/06/13 08:51:32;;;;;;;3.13;2.50;;;;;;;20.13;nan;99162.50;5040398;28;20197;-79
2023/06/13 08:54:02;;;;;;;4.03;2.03;;;;;;;20.15;nan;99154.06;5062546;28;20277;-79
2023/06/13 08:56:34;;;;;;;3.33;2.20;;;;;;;20.26;nan;99157.44;5067709;28;20200;-78
2023/06/13 08:59:07;;;;;;;2.73;2.20;;;;;;;20.64;nan;99156.34;5060600;28;20198;-79
2023/06/13 09:01:37;;;;;;;4.27;2.50;;;;;;;20.78;nan;99151.75;5053469;28;20200;-79
2023/06/13 09:04:06;;;;;;;3.77;2.30;;;;;;;20.99;nan;99155.75;5063166;28;20209;-79
2023/06/13 09:06:37;;;;;;;3.03;2.53;;;;;;;21.02;nan;99157.88;5065110;28;20223;-79
2023/06/13 09:09:08;;;;;;;2.90;2.50;;;;;;;20.41;nan;99159.97;5050711;28;20259;-79
2023/06/13 09:11:36;;;;;;;3.60;2.60;;;;;;;20.82;nan;99160.13;5059549;28;20204;-79
2023/06/13 09:14:04;;;;;;;5.67;2.63;;;;;;;20.76;nan;99162.16;5055334;28;20190;-80
2023/06/13 09:16:32;;;;;;;3.80;2.20;;;;;;;20.96;nan;99155.53;5071760;28;20186;-82
2023/06/13 09:18:59;;;;;;;3.03;2.00;;;;;;;21.16;nan;99155.19;5070084;28;20194;-79
2023/06/13 09:21:27;;;;;;;2.87;1.93;;;;;;;20.91;nan;99150.97;5066347;28;20709;-80
2023/06/13 09:23:55;;;;;;;3.97;2.13;;;;;;;21.19;nan;99154.59;5049661;28;20222;-79
2023/06/13 09:26:22;;;;;;;2.77;1.90;;;;;;;20.60;nan;99142.50;5052548;28;20658;-79
2023/06/13 09:28:49;;;;;;;5.43;2.30;;;;;;;20.79;nan;99145.19;5056819;28;20243;-79
2023/06/13 09:31:16;;;;;;;2.30;2.10;;;;;;;21.10;nan;99131.84;5064936;28;20197;-79
2023/06/13 09:33:44;;;;;;;3.43;2.07;;;;;;;21.02;nan;99135.28;5053730;28;20415;-79
2023/06/13 09:36:12;;;;;;;2.47;2.07;;;;;;;21.02;nan;99136.09;5061092;28;20209;-79
2023/06/13 09:38:40;;;;;;;1.90;1.80;;;;;;;21.28;nan;99128.25;5061905;28;20198;-80
2023/06/13 09:41:10;;;;;;;4.27;1.90;;;;;;;21.44;nan;99134.25;5054129;28;21377;-79
2023/06/13 09:43:38;;;;;;;9.97;2.33;;;;;;;21.26;nan;99146.03;5059407;28;20214;-79
2023/06/13 09:46:05;;;;;;;2.47;2.00;;;;;;;20.67;nan;99133.94;5057898;28;20185;-80
2023/06/13 09:48:32;;;;;;;5.60;2.27;;;;;;;20.78;nan;99129.97;5037135;28;20201;-80
2023/06/13 09:51:03;;;;;;;2.40;1.90;;;;;;;21.07;nan;99133.28;5063763;28;20199;-80
2023/06/13 09:53:30;;;;;;;2.93;1.90;;;;;;;21.42;nan;99128.28;5065157;28;20227;-80
2023/06/13 09:55:57;;;;;;;2.13;1.80;;;;;;;21.64;nan;99122.13;5063493;28;20185;-79
2023/06/13 09:58:25;;;;;;;2.67;2.00;;;;;;;21.87;nan;99116.44;5061899;28;20678;-80
2023/06/13 10:00:59;;;;;;;2.30;2.10;;;;;;;22.03;nan;99111.47;5063801;28;20277;-79
2023/06/13 10:03:28;;;;;;;3.05;1.90;;;;;;;21.64;nan;99114.75;5060180;28;20733;-80
2023/06/13 10:06:00;;;;;;;2.58;2.20;;;;;;;21.91;nan;99098.34;5066681;28;20375;-81
2023/06/13 10:08:26;;;;;;;2.33;2.00;;;;;;;22.12;nan;99103.38;5069079;28;20616;-80
2023/06/13 10:10:54;;;;;;;2.30;2.10;;;;;;;22.10;nan;99100.97;5062736;28;20232;-79
2023/06/13 10:13:26;;;;;;;2.10;2.00;;;;;;;21.85;nan;99096.03;5063230;28;20239;-80
2023/06/13 10:15:58;;;;;;;3.93;2.20;;;;;;;22.17;nan;99100.53;5060910;28;20493;-79
2023/06/13 10:18:30;;;;;;;2.97;2.30;;;;;;;21.94;nan;99096.94;5069298;28;20229;-80
2023/06/13 10:20:58;;;;;;;3.50;2.10;;;;;;;22.13;nan;99094.06;5056780;28;20197;-79
2023/06/13 10:23:30;;;;;;;4.37;2.20;;;;;;;22.01;nan;99096.53;5058431;28;20209;-80
2023/06/13 10:26:00;;;;;;;3.27;2.07;;;;;;;22.13;nan;99083.16;5056156;28;20215;-80
2023/06/13 10:28:46;;;;;;;3.47;2.38;;;;;;;22.47;nan;99085.34;5055970;28;20194;-79
2023/06/13 10:31:42;;;;;;;3.10;2.22;;;;;;;22.32;nan;99091.97;5054462;28;20208;-79
2023/06/13 10:34:30;;;;;;;2.47;2.20;;;;;;;22.09;nan;99088.44;5068508;28;20218;-79
2023/06/13 10:37:26;;;;;;;5.68;2.72;;;;;;;22.13;nan;99078.50;5040900;28;20664;-80
2023/06/13 10:40:32;;;;;;;2.83;2.13;;;;;;;22.62;nan;99074.06;5045204;28;20616;-80
2023/06/13 10:43:08;;;;;;;2.55;2.22;;;;;;;23.01;nan;99079.59;5067219;28;20291;-79
2023/06/13 10:45:35;;;;;;;3.33;2.15;;;;;;;22.81;nan;99071.97;5049641;28;20185;-79
2023/06/13 10:48:06;;;;;;;3.15;2.10;;;;;;;23.20;nan;99076.63;5050852;28;20192;-81
2023/06/13 10:50:38;;;;;;;2.95;2.15;;;;;;;23.24;nan;99080.34;5048481;28;20198;-80
2023/06/13 10:53:07;;;;;;;2.50;2.30;;;;;;;22.65;nan;99065.25;5050256;28;20218;-79
2023/06/13 10:55:38;;;;;;;5.80;2.70;;;;;;;22.93;nan;99076.81;5045890;28;20186;-79
2023/06/13 10:58:12;;;;;;;2.75;2.55;;;;;;;22.82;nan;99071.63;5054315;28;20212;-80
2023/06/13 11:00:39;;;;;;;3.33;2.13;;;;;;;22.66;nan;99064.13;5055535;28;20195;-79
2023/06/13 11:03:13;;;;;;;4.70;2.60;;;;;;;22.56;nan;99072.56;5052263;28;20609;-79
2023/06/13 11:05:49;;;;;;;8.07;2.50;;;;;;;22.12;nan;99063.25;5050305;28;20207;-79
2023/06/13 11:08:19;;;;;;;3.60;2.15;;;;;;;22.24;nan;99065.44;5056553;28;20279;-79
2023/06/13 11:10:48;;;;;;;2.87;2.20;;;;;;;22.43;nan;99059.81;5040804;28;20234;-79
2023/06/13 11:13:22;;;;;;;6.82;2.38;;;;;;;22.90;nan;99063.81;5055493;28;20267;-80
2023/06/13 11:15:50;;;;;;;4.75;2.55;;;;;;;22.58;nan;99060.25;5048194;28;20200;-80
2023/06/13 11:18:20;;;;;;;3.87;2.43;;;;;;;22.88;nan;99055.91;5039045;28;20201;-79
2023/06/13 11:20:50;;;;;;;4.50;2.70;;;;;;;22.40;nan;99053.03;5057263;28;20202;-80
2023/06/13 11:23:18;;;;;;;4.32;2.63;;;;;;;22.30;nan;99062.28;5046849;28;20651;-79
2023/06/13 11:25:45;;;;;;;3.47;2.60;;;;;;;22.48;nan;99060.50;5073382;28;20227;-80
2023/06/13 11:28:14;;;;;;;2.77;2.57;;;;;;;22.78;nan;99043.34;5046702;28;20579;-80
2023/06/13 11:30:42;;;;;;;5.32;2.65;;;;;;;22.92;nan;99032.31;5071995;28;20193;-79
2023/06/13 11:33:09;;;;;;;3.20;2.30;;;;;;;23.13;nan;99036.13;5071563;28;20215;-79
2023/06/13 11:35:38;;;;;;;3.30;2.50;;;;;;;23.47;nan;99043.63;5073135;28;20262;-79
2023/06/13 11:38:09;;;;;;;2.80;2.35;;;;;;;22.69;nan;99031.53;5063076;28;20194;-79
2023/06/13 11:40:40;;;;;;;3.78;2.42;;;;;;;22.70;nan;99041.38;5060315;28;20193;-79
2023/06/13 11:43:07;;;;;;;2.63;2.28;;;;;;;23.03;nan;99032.84;5058466;28;20281;-80
2023/06/13 11:45:35;;;;;;;2.75;2.42;;;;;;;23.53;nan;99033.34;5063393;28;20205;-79
2023/06/13 11:48:02;;;;;;;3.33;2.50;;;;;;;23.22;nan;99031.47;5061291;28;20196;-82
2023/06/13 11:50:32;;;;;;;2.47;2.28;;;;;;;23.27;nan;99034.06;5065098;28;20683;-79
2023/06/13 11:53:08;;;;;;;2.58;2.38;;;;;;;23.45;nan;99037.69;5063089;28;20221;-79
2023/06/13 11:55:36;;;;;;;2.67;2.40;;;;;;;23.54;nan;99030.28;5045160;28;20555;-79
2023/06/13 11:58:03;;;;;;;2.50;2.30;;;;;;;24.16;nan;99023.72;5059347;28;20191;-80
2023/06/13 12:00:47;;;;;;;2.50;2.30;;;;;;;24.55;nan;99024.34;5068071;28;20187;-79